Grand Tri Run - The Running Day
22 May 2016

     
Click your name for detailed results

Page 1 of 2 (98 items)
PosBib NoNameGun TimeChip TimeCategoryCat PosGenderGen PosClubPace
2948Craig FOLEY1:53:09.01:53:01.8V4013Male28BIKE CITY T3 | WELLS CITY HARRIERS 6.9 m/hr
16111Andrew TAYLOR1:45:14.91:45:12.5V407Male15BTEAM 7.5 m/hr
6361Victoria HAMPTON2:09:08.92:09:04.9Sen6Female11SALISBURY TRI CLUB 6.1 m/hr
8413Ian BUGLER2:21:28.62:21:15.9V4025Male62SQUARE AND COMPASS TRAIL RUNNERS 5.6 m/hr
193Benedict POLLARD1:27:45.91:27:45.2V401Male1 9.0 m/hr
2114Matthew VAIL1:29:24.01:29:21.8Sen1Male2 8.8 m/hr
330Ben DELL1:34:17.31:34:17.3Sen2Male3 8.3 m/hr
443Hakan ERIXON1:38:07.61:38:07.2V501Male4 8.0 m/hr
568Samantha INNES1:38:16.81:38:13.0Sen1Female1 8.0 m/hr
6339Marko KIISKI1:39:09.41:38:57.8V402Male5 7.9 m/hr
759Ed HADDON1:40:26.31:40:23.5V403Male6 7.8 m/hr
88Lars BIELER1:40:59.01:40:48.4Sen3Male7 7.8 m/hr
99James BLACKBOURN1:41:05.61:41:02.3Sen4Male8 7.8 m/hr
1052Pedro GAMITO1:41:29.41:41:28.1V404Male9 7.7 m/hr
1144Jordan EVANS1:42:08.01:42:05.7Sen5Male10 7.7 m/hr
1234Richard DIXON1:42:19.31:42:11.8V405Male11 7.7 m/hr
1378Allen LONG1:43:03.11:42:53.0Sen6Male12 7.6 m/hr
1427Timothy DAUNT1:44:24.01:44:13.2V406Male13 7.5 m/hr
15120Graham WRIGHT1:44:25.21:44:20.6Sen7Male14 7.5 m/hr
1716Simon BURCHELL1:47:16.21:47:11.3V408Male16 7.3 m/hr
18117Mark WILLIS1:48:22.71:48:22.0Sen8Male17 7.3 m/hr
1935Justin DOHERTY1:51:19.41:51:14.4V409Male18 7.1 m/hr
2017Rory CAMPBELL-WHEELER1:51:33.21:51:29.8V4010Male19 7.0 m/hr
21103Mike SIMPSON1:51:54.11:51:50.6V502Male20 7.0 m/hr
2220Sam CASWELL1:52:00.61:51:58.1Sen9Male21 7.0 m/hr
23116Russell WERNER1:52:38.91:52:34.7V4011Male22 7.0 m/hr
2449Jonathan FOOT1:52:40.81:52:31.3V601Male23 7.0 m/hr
2566Sean HILDER1:52:42.31:52:40.8Sen10Male24 7.0 m/hr
2683Christopher MULLEN1:52:44.21:52:41.5V4012Male25 7.0 m/hr
27115Chris WALL1:53:02.31:52:57.4V602Male26 7.0 m/hr
2839Mark ECCLESTON1:53:04.81:52:53.4V503Male27 7.0 m/hr
306Beth BARCLAY1:53:21.81:53:16.0V401Female2 6.9 m/hr
3121Jonathan CLARKE1:53:27.91:53:22.4V4014Male29 6.9 m/hr
3238Jarrod DUNNING1:55:09.31:55:03.0Sen11Male30 6.8 m/hr
33338Sean HAMILTON1:55:20.01:55:05.9Sen12Male31 6.8 m/hr
34108Christopher STOCKS1:55:24.51:55:07.4V4015Male32 6.8 m/hr
3512Susan BRYAN1:55:24.81:55:09.3V402Female3 6.8 m/hr
3642John EMPSON1:55:47.31:55:45.3V504Male33 6.8 m/hr
3796Oliver POOLE1:56:13.81:56:06.7Sen13Male34 6.8 m/hr
3845Andy FAIRCHILD1:56:17.71:56:16.0Sen14Male35 6.8 m/hr
3915Gary BUNDY1:56:22.61:56:10.3V505Male36 6.8 m/hr
4046Gavin FAUVEL1:56:54.41:56:45.2V4016Male37 6.7 m/hr
4195Kingsley POOLE1:57:21.51:57:15.2V4017Male38 6.7 m/hr
42112Michael TIZARD1:57:42.11:57:34.7V506Male39 6.7 m/hr
4350Gerhard FOURIE2:00:15.82:00:10.3V4018Male40 6.5 m/hr
444Alex BALL2:00:39.12:00:34.6V507Male41 6.5 m/hr
4554Matt GOSS-CUSTARD2:00:47.32:00:39.1V4019Male42 6.5 m/hr
4622John CONNOR2:01:17.42:01:08.1V508Male43 6.5 m/hr
4798Jane ROBSON2:01:18.02:01:09.5V403Female4 6.5 m/hr
4899Francis RUSSELL2:01:29.62:01:20.6V509Male44 6.5 m/hr
Page 1 of 2 (98 items)
   

fb